sensor_id;sensor_type;location;lat;lon;timestamp;temperature;humidity
18876;DHT22;9570;50.854;13.778;2023-03-23T00:01:11;13.20;99.90
18876;DHT22;9570;50.854;13.778;2023-03-23T00:03:44;13.20;99.90
18876;DHT22;9570;50.854;13.778;2023-03-23T00:06:10;13.20;99.90
18876;DHT22;9570;50.854;13.778;2023-03-23T00:08:38;13.20;99.90
18876;DHT22;9570;50.854;13.778;2023-03-23T00:11:15;13.20;99.90
18876;DHT22;9570;50.854;13.778;2023-03-23T00:13:42;13.30;99.90
18876;DHT22;9570;50.854;13.778;2023-03-23T00:16:08;13.30;99.90
18876;DHT22;9570;50.854;13.778;2023-03-23T00:18:48;13.40;99.90
18876;DHT22;9570;50.854;13.778;2023-03-23T00:21:18;13.40;99.90
18876;DHT22;9570;50.854;13.778;2023-03-23T00:23:44;13.40;99.90
18876;DHT22;9570;50.854;13.778;2023-03-23T00:26:10;13.40;99.90
18876;DHT22;9570;50.854;13.778;2023-03-23T00:28:36;13.40;99.90
18876;DHT22;9570;50.854;13.778;2023-03-23T00:31:04;13.40;99.90
18876;DHT22;9570;50.854;13.778;2023-03-23T00:33:32;13.40;99.90
18876;DHT22;9570;50.854;13.778;2023-03-23T00:36:06;13.30;99.90
18876;DHT22;9570;50.854;13.778;2023-03-23T00:38:34;13.30;99.90
18876;DHT22;9570;50.854;13.778;2023-03-23T00:40:59;13.30;99.90
18876;DHT22;9570;50.854;13.778;2023-03-23T00:43:28;13.30;99.90
18876;DHT22;9570;50.854;13.778;2023-03-23T00:45:55;13.30;99.90
18876;DHT22;9570;50.854;13.778;2023-03-23T00:48:22;13.20;99.90
18876;DHT22;9570;50.854;13.778;2023-03-23T00:50:49;13.20;99.90
18876;DHT22;9570;50.854;13.778;2023-03-23T00:53:15;13.30;99.90
18876;DHT22;9570;50.854;13.778;2023-03-23T00:55:45;13.30;99.90
18876;DHT22;9570;50.854;13.778;2023-03-23T00:58:12;13.20;99.90
18876;DHT22;9570;50.854;13.778;2023-03-23T01:00:38;13.20;99.90
18876;DHT22;9570;50.854;13.778;2023-03-23T01:03:04;13.30;99.90
18876;DHT22;9570;50.854;13.778;2023-03-23T01:05:38;13.30;99.90
18876;DHT22;9570;50.854;13.778;2023-03-23T01:08:04;13.40;99.90
18876;DHT22;9570;50.854;13.778;2023-03-23T01:10:30;13.40;99.90
18876;DHT22;9570;50.854;13.778;2023-03-23T01:12:59;13.50;99.90
18876;DHT22;9570;50.854;13.778;2023-03-23T01:15:25;13.50;99.90
18876;DHT22;9570;50.854;13.778;2023-03-23T01:17:51;13.50;99.90
18876;DHT22;9570;50.854;13.778;2023-03-23T01:20:17;13.50;99.90
18876;DHT22;9570;50.854;13.778;2023-03-23T01:22:43;13.60;99.90
18876;DHT22;9570;50.854;13.778;2023-03-23T01:25:10;13.60;99.90
18876;DHT22;9570;50.854;13.778;2023-03-23T01:27:36;13.60;99.90
18876;DHT22;9570;50.854;13.778;2023-03-23T01:30:04;13.60;99.90
18876;DHT22;9570;50.854;13.778;2023-03-23T01:32:30;13.70;99.90
18876;DHT22;9570;50.854;13.778;2023-03-23T01:34:55;13.70;99.90
18876;DHT22;9570;50.854;13.778;2023-03-23T01:37:21;13.80;99.90
18876;DHT22;9570;50.854;13.778;2023-03-23T01:39:54;13.80;99.90
18876;DHT22;9570;50.854;13.778;2023-03-23T01:42:31;13.90;99.90
18876;DHT22;9570;50.854;13.778;2023-03-23T01:47:44;13.90;99.90
18876;DHT22;9570;50.854;13.778;2023-03-23T01:50:10;13.90;99.90
18876;DHT22;9570;50.854;13.778;2023-03-23T01:52:36;13.90;99.90
18876;DHT22;9570;50.854;13.778;2023-03-23T01:55:02;13.90;99.90
18876;DHT22;9570;50.854;13.778;2023-03-23T01:57:29;13.90;99.90
18876;DHT22;9570;50.854;13.778;2023-03-23T01:59:57;14.00;99.90
18876;DHT22;9570;50.854;13.778;2023-03-23T02:02:24;14.00;99.90
18876;DHT22;9570;50.854;13.778;2023-03-23T02:04:51;13.90;99.90
18876;DHT22;9570;50.854;13.778;2023-03-23T02:07:21;13.90;99.90
18876;DHT22;9570;50.854;13.778;2023-03-23T02:09:50;13.80;99.90
18876;DHT22;9570;50.854;13.778;2023-03-23T02:12:15;13.70;99.90
18876;DHT22;9570;50.854;13.778;2023-03-23T02:14:41;13.70;99.90
18876;DHT22;9570;50.854;13.778;2023-03-23T02:17:28;13.60;99.90
18876;DHT22;9570;50.854;13.778;2023-03-23T02:23:27;13.60;99.90
18876;DHT22;9570;50.854;13.778;2023-03-23T02:29:07;13.50;99.90
18876;DHT22;9570;50.854;13.778;2023-03-23T02:34:42;13.30;99.90
18876;DHT22;9570;50.854;13.778;2023-03-23T02:37:32;13.30;99.90
18876;DHT22;9570;50.854;13.778;2023-03-23T02:40:09;13.20;99.90
18876;DHT22;9570;50.854;13.778;2023-03-23T02:42:40;13.20;99.90
18876;DHT22;9570;50.854;13.778;2023-03-23T02:45:10;13.10;99.90
18876;DHT22;9570;50.854;13.778;2023-03-23T02:47:38;13.00;99.90
18876;DHT22;9570;50.854;13.778;2023-03-23T02:50:05;13.00;99.90
18876;DHT22;9570;50.854;13.778;2023-03-23T02:52:33;12.90;99.90
18876;DHT22;9570;50.854;13.778;2023-03-23T02:55:00;12.90;99.90
18876;DHT22;9570;50.854;13.778;2023-03-23T02:57:27;12.80;99.90
18876;DHT22;9570;50.854;13.778;2023-03-23T02:59:53;12.80;99.90
18876;DHT22;9570;50.854;13.778;2023-03-23T03:02:28;12.90;99.90
18876;DHT22;9570;50.854;13.778;2023-03-23T03:05:12;12.90;99.90
18876;DHT22;9570;50.854;13.778;2023-03-23T03:07:57;13.00;99.90
18876;DHT22;9570;50.854;13.778;2023-03-23T03:10:40;13.10;99.90
18876;DHT22;9570;50.854;13.778;2023-03-23T03:13:35;13.20;99.90
18876;DHT22;9570;50.854;13.778;2023-03-23T03:21:17;13.30;99.90
18876;DHT22;9570;50.854;13.778;2023-03-23T03:23:46;13.30;99.90
18876;DHT22;9570;50.854;13.778;2023-03-23T03:26:14;13.30;99.90
18876;DHT22;9570;50.854;13.778;2023-03-23T03:28:44;13.20;99.90
18876;DHT22;9570;50.854;13.778;2023-03-23T03:31:13;13.20;99.90
18876;DHT22;9570;50.854;13.778;2023-03-23T03:33:40;13.10;99.90
18876;DHT22;9570;50.854;13.778;2023-03-23T03:36:06;13.00;99.90
18876;DHT22;9570;50.854;13.778;2023-03-23T03:38:44;13.10;99.90
18876;DHT22;9570;50.854;13.778;2023-03-23T03:41:11;13.10;99.90
18876;DHT22;9570;50.854;13.778;2023-03-23T03:43:36;13.10;99.90
18876;DHT22;9570;50.854;13.778;2023-03-23T03:46:02;13.10;99.90
18876;DHT22;9570;50.854;13.778;2023-03-23T03:48:28;13.10;99.90
18876;DHT22;9570;50.854;13.778;2023-03-23T03:50:53;13.00;99.90
18876;DHT22;9570;50.854;13.778;2023-03-23T03:53:22;12.90;99.90
18876;DHT22;9570;50.854;13.778;2023-03-23T03:55:48;12.70;99.90
18876;DHT22;9570;50.854;13.778;2023-03-23T03:58:15;12.50;99.90
18876;DHT22;9570;50.854;13.778;2023-03-23T04:00:41;12.50;99.90
18876;DHT22;9570;50.854;13.778;2023-03-23T04:03:07;12.50;99.90
18876;DHT22;9570;50.854;13.778;2023-03-23T04:05:32;12.50;99.90
18876;DHT22;9570;50.854;13.778;2023-03-23T04:07:58;12.40;99.90
18876;DHT22;9570;50.854;13.778;2023-03-23T04:10:27;12.40;99.90
18876;DHT22;9570;50.854;13.778;2023-03-23T04:12:53;12.30;99.90
18876;DHT22;9570;50.854;13.778;2023-03-23T04:15:18;12.40;99.90
18876;DHT22;9570;50.854;13.778;2023-03-23T04:17:44;12.40;99.90
18876;DHT22;9570;50.854;13.778;2023-03-23T04:20:10;12.40;99.90
18876;DHT22;9570;50.854;13.778;2023-03-23T04:22:49;12.40;99.90
18876;DHT22;9570;50.854;13.778;2023-03-23T04:25:16;12.30;99.90
18876;DHT22;9570;50.854;13.778;2023-03-23T04:27:43;12.20;99.90
18876;DHT22;9570;50.854;13.778;2023-03-23T04:30:10;12.10;99.90
18876;DHT22;9570;50.854;13.778;2023-03-23T04:32:36;12.10;99.90
18876;DHT22;9570;50.854;13.778;2023-03-23T04:35:06;12.00;99.90
18876;DHT22;9570;50.854;13.778;2023-03-23T04:37:32;12.10;99.90
18876;DHT22;9570;50.854;13.778;2023-03-23T04:39:59;12.00;99.90
18876;DHT22;9570;50.854;13.778;2023-03-23T04:42:38;12.00;99.90
18876;DHT22;9570;50.854;13.778;2023-03-23T04:45:05;12.00;99.90
18876;DHT22;9570;50.854;13.778;2023-03-23T04:47:34;12.00;99.90
18876;DHT22;9570;50.854;13.778;2023-03-23T04:50:05;12.00;99.90
18876;DHT22;9570;50.854;13.778;2023-03-23T04:52:31;12.00;99.90
18876;DHT22;9570;50.854;13.778;2023-03-23T04:54:57;12.00;99.90
18876;DHT22;9570;50.854;13.778;2023-03-23T04:57:23;11.90;99.90
18876;DHT22;9570;50.854;13.778;2023-03-23T04:59:48;11.80;99.90
18876;DHT22;9570;50.854;13.778;2023-03-23T05:02:14;11.90;99.90
18876;DHT22;9570;50.854;13.778;2023-03-23T05:04:40;11.90;99.90
18876;DHT22;9570;50.854;13.778;2023-03-23T05:07:07;12.00;99.90
18876;DHT22;9570;50.854;13.778;2023-03-23T05:09:33;12.00;99.90
18876;DHT22;9570;50.854;13.778;2023-03-23T05:12:04;11.90;99.90
18876;DHT22;9570;50.854;13.778;2023-03-23T05:14:29;12.00;99.90
18876;DHT22;9570;50.854;13.778;2023-03-23T05:16:55;11.90;99.90
18876;DHT22;9570;50.854;13.778;2023-03-23T05:19:21;12.00;99.90
18876;DHT22;9570;50.854;13.778;2023-03-23T05:21:46;11.90;99.90
18876;DHT22;9570;50.854;13.778;2023-03-23T05:24:12;11.80;99.90
18876;DHT22;9570;50.854;13.778;2023-03-23T05:26:37;11.90;99.90
18876;DHT22;9570;50.854;13.778;2023-03-23T05:29:03;12.00;99.90
18876;DHT22;9570;50.854;13.778;2023-03-23T05:31:28;12.00;99.90
18876;DHT22;9570;50.854;13.778;2023-03-23T05:33:54;12.10;99.90
18876;DHT22;9570;50.854;13.778;2023-03-23T05:36:19;12.20;99.90
18876;DHT22;9570;50.854;13.778;2023-03-23T05:41:15;12.50;99.90
18876;DHT22;9570;50.854;13.778;2023-03-23T05:43:40;12.70;99.90
18876;DHT22;9570;50.854;13.778;2023-03-23T05:46:06;12.80;99.90
18876;DHT22;9570;50.854;13.778;2023-03-23T05:48:33;13.00;99.90
18876;DHT22;9570;50.854;13.778;2023-03-23T05:50:59;13.10;99.90
18876;DHT22;9570;50.854;13.778;2023-03-23T05:53:24;13.20;99.90
18876;DHT22;9570;50.854;13.778;2023-03-23T05:55:51;13.30;99.90
18876;DHT22;9570;50.854;13.778;2023-03-23T05:58:16;13.40;99.90
18876;DHT22;9570;50.854;13.778;2023-03-23T06:00:42;13.40;99.90
18876;DHT22;9570;50.854;13.778;2023-03-23T06:03:08;13.50;99.90
18876;DHT22;9570;50.854;13.778;2023-03-23T06:05:33;13.50;99.90
18876;DHT22;9570;50.854;13.778;2023-03-23T06:07:59;13.60;99.90
18876;DHT22;9570;50.854;13.778;2023-03-23T06:10:25;13.60;99.90
18876;DHT22;9570;50.854;13.778;2023-03-23T06:12:52;13.60;99.90
18876;DHT22;9570;50.854;13.778;2023-03-23T06:15:18;13.70;99.90
18876;DHT22;9570;50.854;13.778;2023-03-23T06:17:44;13.70;99.90
18876;DHT22;9570;50.854;13.778;2023-03-23T06:20:10;13.70;99.90
18876;DHT22;9570;50.854;13.778;2023-03-23T06:22:37;13.70;99.90
18876;DHT22;9570;50.854;13.778;2023-03-23T06:25:04;13.80;99.90
18876;DHT22;9570;50.854;13.778;2023-03-23T06:27:30;13.80;99.90
18876;DHT22;9570;50.854;13.778;2023-03-23T06:29:55;13.90;99.90
18876;DHT22;9570;50.854;13.778;2023-03-23T06:32:22;13.90;99.90
18876;DHT22;9570;50.854;13.778;2023-03-23T06:34:49;13.90;99.90
18876;DHT22;9570;50.854;13.778;2023-03-23T06:37:14;14.00;99.90
18876;DHT22;9570;50.854;13.778;2023-03-23T06:39:41;14.20;99.90
18876;DHT22;9570;50.854;13.778;2023-03-23T06:42:09;14.30;99.90
18876;DHT22;9570;50.854;13.778;2023-03-23T06:44:36;14.40;99.90
18876;DHT22;9570;50.854;13.778;2023-03-23T06:47:02;14.40;99.90
18876;DHT22;9570;50.854;13.778;2023-03-23T06:49:27;14.30;99.90
18876;DHT22;9570;50.854;13.778;2023-03-23T06:51:53;14.30;99.90
18876;DHT22;9570;50.854;13.778;2023-03-23T06:54:19;14.30;99.90
18876;DHT22;9570;50.854;13.778;2023-03-23T06:56:44;14.20;99.90
18876;DHT22;9570;50.854;13.778;2023-03-23T06:59:10;14.30;99.90
18876;DHT22;9570;50.854;13.778;2023-03-23T07:01:36;14.20;99.90
18876;DHT22;9570;50.854;13.778;2023-03-23T07:04:02;14.20;99.90
18876;DHT22;9570;50.854;13.778;2023-03-23T07:06:27;14.20;99.90
18876;DHT22;9570;50.854;13.778;2023-03-23T07:08:53;14.20;99.90
18876;DHT22;9570;50.854;13.778;2023-03-23T07:11:18;14.20;99.90
18876;DHT22;9570;50.854;13.778;2023-03-23T07:13:44;14.20;99.90
18876;DHT22;9570;50.854;13.778;2023-03-23T07:16:10;14.20;99.90
18876;DHT22;9570;50.854;13.778;2023-03-23T07:18:36;14.20;99.90
18876;DHT22;9570;50.854;13.778;2023-03-23T07:21:02;14.20;99.90
18876;DHT22;9570;50.854;13.778;2023-03-23T07:23:29;14.20;99.90
18876;DHT22;9570;50.854;13.778;2023-03-23T07:25:55;14.30;99.90
18876;DHT22;9570;50.854;13.778;2023-03-23T07:28:21;14.30;99.90
18876;DHT22;9570;50.854;13.778;2023-03-23T07:30:46;14.30;99.90
18876;DHT22;9570;50.854;13.778;2023-03-23T07:33:12;14.30;99.90
18876;DHT22;9570;50.854;13.778;2023-03-23T07:35:38;14.40;99.90
18876;DHT22;9570;50.854;13.778;2023-03-23T07:38:05;14.30;99.90
18876;DHT22;9570;50.854;13.778;2023-03-23T07:40:31;14.40;99.90
18876;DHT22;9570;50.854;13.778;2023-03-23T07:42:59;14.40;99.90
18876;DHT22;9570;50.854;13.778;2023-03-23T07:45:25;14.50;99.90
18876;DHT22;9570;50.854;13.778;2023-03-23T07:47:51;14.60;99.90
18876;DHT22;9570;50.854;13.778;2023-03-23T07:50:18;14.70;99.90
18876;DHT22;9570;50.854;13.778;2023-03-23T07:52:46;14.80;99.90
18876;DHT22;9570;50.854;13.778;2023-03-23T07:55:12;14.80;99.90
18876;DHT22;9570;50.854;13.778;2023-03-23T07:57:45;14.80;99.90
18876;DHT22;9570;50.854;13.778;2023-03-23T08:00:13;14.90;99.90
18876;DHT22;9570;50.854;13.778;2023-03-23T08:02:45;14.90;99.90
18876;DHT22;9570;50.854;13.778;2023-03-23T08:05:11;14.80;99.90
18876;DHT22;9570;50.854;13.778;2023-03-23T08:07:38;14.80;99.90
18876;DHT22;9570;50.854;13.778;2023-03-23T08:10:06;14.80;99.90
18876;DHT22;9570;50.854;13.778;2023-03-23T08:12:35;14.70;99.90
18876;DHT22;9570;50.854;13.778;2023-03-23T08:15:01;14.70;99.90
18876;DHT22;9570;50.854;13.778;2023-03-23T08:17:26;14.80;99.90
18876;DHT22;9570;50.854;13.778;2023-03-23T08:19:51;14.80;99.90
18876;DHT22;9570;50.854;13.778;2023-03-23T08:22:18;14.90;99.90
18876;DHT22;9570;50.854;13.778;2023-03-23T08:24:43;14.90;99.90
18876;DHT22;9570;50.854;13.778;2023-03-23T08:27:09;14.90;99.90
18876;DHT22;9570;50.854;13.778;2023-03-23T08:29:35;14.90;99.90
18876;DHT22;9570;50.854;13.778;2023-03-23T08:32:00;15.00;99.90
18876;DHT22;9570;50.854;13.778;2023-03-23T08:34:28;14.90;99.90
18876;DHT22;9570;50.854;13.778;2023-03-23T08:36:54;15.00;99.90
18876;DHT22;9570;50.854;13.778;2023-03-23T08:39:20;15.00;99.90
18876;DHT22;9570;50.854;13.778;2023-03-23T08:41:48;15.00;99.90
18876;DHT22;9570;50.854;13.778;2023-03-23T08:44:13;14.90;99.90
18876;DHT22;9570;50.854;13.778;2023-03-23T08:46:39;14.90;99.90
18876;DHT22;9570;50.854;13.778;2023-03-23T08:49:06;14.90;99.90
18876;DHT22;9570;50.854;13.778;2023-03-23T08:51:32;14.90;99.90
18876;DHT22;9570;50.854;13.778;2023-03-23T08:53:57;15.00;99.90
18876;DHT22;9570;50.854;13.778;2023-03-23T08:56:24;15.00;99.90
18876;DHT22;9570;50.854;13.778;2023-03-23T08:58:49;15.00;99.90
18876;DHT22;9570;50.854;13.778;2023-03-23T09:01:15;15.00;99.90
18876;DHT22;9570;50.854;13.778;2023-03-23T09:03:41;15.00;99.90
18876;DHT22;9570;50.854;13.778;2023-03-23T09:06:08;15.00;99.90
18876;DHT22;9570;50.854;13.778;2023-03-23T09:08:34;15.10;99.90
18876;DHT22;9570;50.854;13.778;2023-03-23T09:11:05;15.10;99.90
18876;DHT22;9570;50.854;13.778;2023-03-23T09:13:32;15.20;99.90
18876;DHT22;9570;50.854;13.778;2023-03-23T09:15:58;15.20;99.90
18876;DHT22;9570;50.854;13.778;2023-03-23T09:18:23;15.20;99.90
18876;DHT22;9570;50.854;13.778;2023-03-23T09:20:50;15.20;99.90
18876;DHT22;9570;50.854;13.778;2023-03-23T09:23:15;15.10;99.90
18876;DHT22;9570;50.854;13.778;2023-03-23T09:25:41;15.10;99.90
18876;DHT22;9570;50.854;13.778;2023-03-23T09:28:06;15.10;99.90
18876;DHT22;9570;50.854;13.778;2023-03-23T09:30:33;15.10;99.90
18876;DHT22;9570;50.854;13.778;2023-03-23T09:33:01;15.20;99.90
18876;DHT22;9570;50.854;13.778;2023-03-23T09:35:27;15.10;99.90
18876;DHT22;9570;50.854;13.778;2023-03-23T09:37:52;15.20;99.90
18876;DHT22;9570;50.854;13.778;2023-03-23T09:40:24;15.20;99.90
18876;DHT22;9570;50.854;13.778;2023-03-23T09:48:58;15.30;99.90
18876;DHT22;9570;50.854;13.778;2023-03-23T09:51:44;15.20;99.90
18876;DHT22;9570;50.854;13.778;2023-03-23T09:54:24;15.20;99.90
18876;DHT22;9570;50.854;13.778;2023-03-23T09:56:51;15.20;99.90
18876;DHT22;9570;50.854;13.778;2023-03-23T10:01:52;15.20;99.90
18876;DHT22;9570;50.854;13.778;2023-03-23T10:04:36;15.20;99.90
18876;DHT22;9570;50.854;13.778;2023-03-23T10:07:13;15.20;99.90
18876;DHT22;9570;50.854;13.778;2023-03-23T10:09:41;15.10;99.90
18876;DHT22;9570;50.854;13.778;2023-03-23T10:12:28;15.10;99.90
18876;DHT22;9570;50.854;13.778;2023-03-23T10:17:49;15.20;99.90
18876;DHT22;9570;50.854;13.778;2023-03-23T10:20:25;15.10;99.90
18876;DHT22;9570;50.854;13.778;2023-03-23T10:25:34;15.00;99.90
18876;DHT22;9570;50.854;13.778;2023-03-23T10:28:11;14.90;99.90
18876;DHT22;9570;50.854;13.778;2023-03-23T10:30:43;14.90;99.90
18876;DHT22;9570;50.854;13.778;2023-03-23T10:33:29;14.90;99.90
18876;DHT22;9570;50.854;13.778;2023-03-23T10:36:50;15.00;99.90
18876;DHT22;9570;50.854;13.778;2023-03-23T10:39:06;14.90;99.90
18876;DHT22;9570;50.854;13.778;2023-03-23T10:41:36;14.90;99.90
18876;DHT22;9570;50.854;13.778;2023-03-23T10:44:09;14.70;99.90
18876;DHT22;9570;50.854;13.778;2023-03-23T10:46:55;14.70;99.90
18876;DHT22;9570;50.854;13.778;2023-03-23T10:49:46;14.70;99.90
18876;DHT22;9570;50.854;13.778;2023-03-23T10:57:31;15.00;99.90
18876;DHT22;9570;50.854;13.778;2023-03-23T11:02:26;15.20;99.90
18876;DHT22;9570;50.854;13.778;2023-03-23T11:05:05;15.20;99.90
18876;DHT22;9570;50.854;13.778;2023-03-23T11:07:33;15.20;99.90
18876;DHT22;9570;50.854;13.778;2023-03-23T11:10:16;15.10;99.90
18876;DHT22;9570;50.854;13.778;2023-03-23T11:12:45;15.10;99.90
18876;DHT22;9570;50.854;13.778;2023-03-23T11:15:28;15.00;99.90
18876;DHT22;9570;50.854;13.778;2023-03-23T11:18:00;15.10;99.90
18876;DHT22;9570;50.854;13.778;2023-03-23T11:20:28;15.00;99.90
18876;DHT22;9570;50.854;13.778;2023-03-23T11:22:55;15.00;99.90
18876;DHT22;9570;50.854;13.778;2023-03-23T11:25:21;15.00;99.90
18876;DHT22;9570;50.854;13.778;2023-03-23T11:27:47;15.10;99.90
18876;DHT22;9570;50.854;13.778;2023-03-23T11:30:27;15.20;99.90
18876;DHT22;9570;50.854;13.778;2023-03-23T11:32:58;15.30;99.90
18876;DHT22;9570;50.854;13.778;2023-03-23T11:35:27;15.40;99.90
18876;DHT22;9570;50.854;13.778;2023-03-23T11:37:58;15.40;99.90
18876;DHT22;9570;50.854;13.778;2023-03-23T11:40:27;15.30;99.90
18876;DHT22;9570;50.854;13.778;2023-03-23T11:45:21;15.40;99.90
18876;DHT22;9570;50.854;13.778;2023-03-23T11:50:57;15.30;99.90
18876;DHT22;9570;50.854;13.778;2023-03-23T11:53:56;15.30;99.90
18876;DHT22;9570;50.854;13.778;2023-03-23T11:56:26;15.30;99.90
18876;DHT22;9570;50.854;13.778;2023-03-23T11:58:54;15.10;99.90
18876;DHT22;9570;50.854;13.778;2023-03-23T12:04:46;14.70;99.90
18876;DHT22;9570;50.854;13.778;2023-03-23T12:10:28;14.50;99.90
18876;DHT22;9570;50.854;13.778;2023-03-23T12:13:02;14.60;99.90
18876;DHT22;9570;50.854;13.778;2023-03-23T12:15:38;14.60;99.90
18876;DHT22;9570;50.854;13.778;2023-03-23T12:18:43;14.50;99.90
18876;DHT22;9570;50.854;13.778;2023-03-23T12:24:19;14.40;99.90
18876;DHT22;9570;50.854;13.778;2023-03-23T12:26:52;14.40;99.90
18876;DHT22;9570;50.854;13.778;2023-03-23T12:29:56;14.50;99.90
18876;DHT22;9570;50.854;13.778;2023-03-23T12:32:44;14.50;99.90
18876;DHT22;9570;50.854;13.778;2023-03-23T12:40:57;14.70;99.90
18876;DHT22;9570;50.854;13.778;2023-03-23T12:43:48;14.80;99.90
18876;DHT22;9570;50.854;13.778;2023-03-23T12:46:34;14.70;99.90
18876;DHT22;9570;50.854;13.778;2023-03-23T12:51:58;14.90;99.90
18876;DHT22;9570;50.854;13.778;2023-03-23T12:54:30;14.90;99.90
18876;DHT22;9570;50.854;13.778;2023-03-23T13:00:23;14.80;99.90
18876;DHT22;9570;50.854;13.778;2023-03-23T13:05:32;15.00;99.90
18876;DHT22;9570;50.854;13.778;2023-03-23T13:08:10;15.10;99.90
18876;DHT22;9570;50.854;13.778;2023-03-23T13:10:46;15.10;99.90
18876;DHT22;9570;50.854;13.778;2023-03-23T13:13:21;15.20;99.90
18876;DHT22;9570;50.854;13.778;2023-03-23T13:16:19;15.10;99.90
18876;DHT22;9570;50.854;13.778;2023-03-23T13:21:46;15.00;99.90
18876;DHT22;9570;50.854;13.778;2023-03-23T13:24:17;15.20;99.90
18876;DHT22;9570;50.854;13.778;2023-03-23T13:26:44;15.40;99.90
18876;DHT22;9570;50.854;13.778;2023-03-23T13:29:20;15.50;99.90
18876;DHT22;9570;50.854;13.778;2023-03-23T13:31:49;15.50;99.90
18876;DHT22;9570;50.854;13.778;2023-03-23T13:36:51;15.50;99.90
18876;DHT22;9570;50.854;13.778;2023-03-23T13:40:13;15.60;99.90
18876;DHT22;9570;50.854;13.778;2023-03-23T13:44:43;15.40;99.90
18876;DHT22;9570;50.854;13.778;2023-03-23T13:47:25;15.40;99.90
18876;DHT22;9570;50.854;13.778;2023-03-23T13:57:55;15.40;99.90
18876;DHT22;9570;50.854;13.778;2023-03-23T14:05:39;15.20;99.90
18876;DHT22;9570;50.854;13.778;2023-03-23T14:13:18;15.20;99.90
18876;DHT22;9570;50.854;13.778;2023-03-23T14:15:54;15.20;99.90
18876;DHT22;9570;50.854;13.778;2023-03-23T14:18:22;15.20;99.90
18876;DHT22;9570;50.854;13.778;2023-03-23T14:20:49;15.20;99.90
18876;DHT22;9570;50.854;13.778;2023-03-23T14:23:16;15.20;99.90
18876;DHT22;9570;50.854;13.778;2023-03-23T14:25:42;15.20;99.90
18876;DHT22;9570;50.854;13.778;2023-03-23T14:28:19;15.20;99.90
18876;DHT22;9570;50.854;13.778;2023-03-23T14:30:47;15.20;99.90
18876;DHT22;9570;50.854;13.778;2023-03-23T14:33:13;15.20;99.90
18876;DHT22;9570;50.854;13.778;2023-03-23T14:35:41;15.20;99.90
18876;DHT22;9570;50.854;13.778;2023-03-23T14:38:19;15.30;99.90
18876;DHT22;9570;50.854;13.778;2023-03-23T14:40:45;15.40;99.90
18876;DHT22;9570;50.854;13.778;2023-03-23T14:43:15;15.30;99.90
18876;DHT22;9570;50.854;13.778;2023-03-23T14:45:41;15.40;99.90
18876;DHT22;9570;50.854;13.778;2023-03-23T14:48:09;15.40;99.90
18876;DHT22;9570;50.854;13.778;2023-03-23T14:50:39;15.50;99.90
18876;DHT22;9570;50.854;13.778;2023-03-23T14:53:30;15.70;99.90
18876;DHT22;9570;50.854;13.778;2023-03-23T14:56:03;15.70;99.90
18876;DHT22;9570;50.854;13.778;2023-03-23T14:58:30;15.60;99.90
18876;DHT22;9570;50.854;13.778;2023-03-23T15:03:27;15.60;99.90
18876;DHT22;9570;50.854;13.778;2023-03-23T15:05:59;15.60;99.90
18876;DHT22;9570;50.854;13.778;2023-03-23T15:08:32;15.60;99.90
18876;DHT22;9570;50.854;13.778;2023-03-23T15:11:05;15.60;99.90
18876;DHT22;9570;50.854;13.778;2023-03-23T15:13:34;15.50;99.90
18876;DHT22;9570;50.854;13.778;2023-03-23T15:16:27;15.40;99.90
18876;DHT22;9570;50.854;13.778;2023-03-23T15:19:00;15.30;99.90
18876;DHT22;9570;50.854;13.778;2023-03-23T15:21:31;15.40;99.90
18876;DHT22;9570;50.854;13.778;2023-03-23T15:23:59;15.40;99.90
18876;DHT22;9570;50.854;13.778;2023-03-23T15:26:34;15.30;99.90
18876;DHT22;9570;50.854;13.778;2023-03-23T15:29:20;15.30;99.90
18876;DHT22;9570;50.854;13.778;2023-03-23T15:31:52;15.40;99.90
18876;DHT22;9570;50.854;13.778;2023-03-23T15:34:29;15.40;99.90
18876;DHT22;9570;50.854;13.778;2023-03-23T15:37:02;15.30;99.90
18876;DHT22;9570;50.854;13.778;2023-03-23T15:39:29;15.30;99.90
18876;DHT22;9570;50.854;13.778;2023-03-23T15:41:56;15.30;99.90
18876;DHT22;9570;50.854;13.778;2023-03-23T15:44:30;15.20;99.90
18876;DHT22;9570;50.854;13.778;2023-03-23T15:47:18;15.20;99.90
18876;DHT22;9570;50.854;13.778;2023-03-23T15:49:44;15.20;99.90
18876;DHT22;9570;50.854;13.778;2023-03-23T15:52:12;15.10;99.90
18876;DHT22;9570;50.854;13.778;2023-03-23T15:54:38;15.10;99.90
18876;DHT22;9570;50.854;13.778;2023-03-23T15:57:03;15.10;99.90
18876;DHT22;9570;50.854;13.778;2023-03-23T15:59:29;15.00;99.90
18876;DHT22;9570;50.854;13.778;2023-03-23T16:01:54;15.10;99.90
18876;DHT22;9570;50.854;13.778;2023-03-23T16:04:20;15.10;99.90
18876;DHT22;9570;50.854;13.778;2023-03-23T16:06:46;15.10;99.90
18876;DHT22;9570;50.854;13.778;2023-03-23T16:09:17;15.00;99.90
18876;DHT22;9570;50.854;13.778;2023-03-23T16:11:43;14.90;99.90
18876;DHT22;9570;50.854;13.778;2023-03-23T16:14:09;14.90;99.90
18876;DHT22;9570;50.854;13.778;2023-03-23T16:16:40;14.90;99.90
18876;DHT22;9570;50.854;13.778;2023-03-23T16:19:07;15.00;99.90
18876;DHT22;9570;50.854;13.778;2023-03-23T16:21:33;15.00;99.90
18876;DHT22;9570;50.854;13.778;2023-03-23T16:23:58;14.90;99.90
18876;DHT22;9570;50.854;13.778;2023-03-23T16:26:24;14.90;99.90
18876;DHT22;9570;50.854;13.778;2023-03-23T16:28:49;14.90;99.90
18876;DHT22;9570;50.854;13.778;2023-03-23T16:31:15;14.80;99.90
18876;DHT22;9570;50.854;13.778;2023-03-23T16:33:40;14.80;99.90
18876;DHT22;9570;50.854;13.778;2023-03-23T16:36:06;14.90;99.90
18876;DHT22;9570;50.854;13.778;2023-03-23T16:38:32;14.80;99.90
18876;DHT22;9570;50.854;13.778;2023-03-23T16:40:57;14.70;99.90
18876;DHT22;9570;50.854;13.778;2023-03-23T16:43:23;14.60;99.90
18876;DHT22;9570;50.854;13.778;2023-03-23T16:45:48;14.50;99.90
18876;DHT22;9570;50.854;13.778;2023-03-23T16:48:15;14.30;99.90
18876;DHT22;9570;50.854;13.778;2023-03-23T16:50:41;14.30;99.90
18876;DHT22;9570;50.854;13.778;2023-03-23T16:53:08;14.30;99.90
18876;DHT22;9570;50.854;13.778;2023-03-23T16:55:35;14.40;99.90
18876;DHT22;9570;50.854;13.778;2023-03-23T16:58:01;14.30;99.90
18876;DHT22;9570;50.854;13.778;2023-03-23T17:00:27;14.30;99.90
18876;DHT22;9570;50.854;13.778;2023-03-23T17:02:54;14.30;99.90
18876;DHT22;9570;50.854;13.778;2023-03-23T17:05:23;14.50;99.90
18876;DHT22;9570;50.854;13.778;2023-03-23T17:07:50;14.40;99.90
18876;DHT22;9570;50.854;13.778;2023-03-23T17:10:16;14.50;99.90
18876;DHT22;9570;50.854;13.778;2023-03-23T17:12:42;14.50;99.90
18876;DHT22;9570;50.854;13.778;2023-03-23T17:15:09;14.70;99.90
18876;DHT22;9570;50.854;13.778;2023-03-23T17:17:35;14.80;99.90
18876;DHT22;9570;50.854;13.778;2023-03-23T17:20:01;14.80;99.90
18876;DHT22;9570;50.854;13.778;2023-03-23T17:22:27;14.70;99.90
18876;DHT22;9570;50.854;13.778;2023-03-23T17:24:53;14.70;99.90